sensor_id;sensor_type;location;lat;lon;timestamp;pressure;altitude;pressure_sealevel;temperature;humidity
67015;BME280;1033;52.560;13.374;2023-01-15T00:01:35;99213.41;;;9.00;95.16
67015;BME280;1033;52.560;13.374;2023-01-15T00:04:06;99198.06;;;9.00;95.59
67015;BME280;1033;52.560;13.374;2023-01-15T00:06:37;99203.44;;;9.00;95.42
67015;BME280;1033;52.560;13.374;2023-01-15T00:09:09;99196.66;;;9.09;94.56
67015;BME280;1033;52.560;13.374;2023-01-15T00:11:41;99190.16;;;9.10;94.19
67015;BME280;1033;52.560;13.374;2023-01-15T00:14:11;99203.78;;;9.15;93.98
67015;BME280;1033;52.560;13.374;2023-01-15T00:16:40;99192.44;;;9.13;94.20
67015;BME280;1033;52.560;13.374;2023-01-15T00:19:12;99198.28;;;9.10;94.19
67015;BME280;1033;52.560;13.374;2023-01-15T00:21:44;99199.09;;;9.11;93.78
67015;BME280;1033;52.560;13.374;2023-01-15T00:24:13;99203.44;;;9.12;94.03
67015;BME280;1033;52.560;13.374;2023-01-15T00:27:00;99196.16;;;9.12;93.95
67015;BME280;1033;52.560;13.374;2023-01-15T00:29:48;99187.47;;;9.10;93.95
67015;BME280;1033;52.560;13.374;2023-01-15T00:32:17;99189.59;;;9.08;94.25
67015;BME280;1033;52.560;13.374;2023-01-15T00:34:46;99181.28;;;9.10;94.17
67015;BME280;1033;52.560;13.374;2023-01-15T00:37:15;99173.28;;;9.15;93.79
67015;BME280;1033;52.560;13.374;2023-01-15T00:39:44;99172.59;;;9.20;93.29
67015;BME280;1033;52.560;13.374;2023-01-15T00:42:14;99165.78;;;9.17;93.33
67015;BME280;1033;52.560;13.374;2023-01-15T00:44:44;99160.38;;;9.17;93.41
67015;BME280;1033;52.560;13.374;2023-01-15T00:47:15;99148.78;;;9.16;93.35
67015;BME280;1033;52.560;13.374;2023-01-15T00:49:45;99151.00;;;9.20;93.60
67015;BME280;1033;52.560;13.374;2023-01-15T00:52:14;99149.38;;;9.19;93.20
67015;BME280;1033;52.560;13.374;2023-01-15T00:54:43;99158.97;;;9.26;93.24
67015;BME280;1033;52.560;13.374;2023-01-15T00:57:15;99171.66;;;9.26;92.79
67015;BME280;1033;52.560;13.374;2023-01-15T00:59:44;99153.13;;;9.29;92.36
67015;BME280;1033;52.560;13.374;2023-01-15T01:02:15;99144.19;;;9.17;92.83
67015;BME280;1033;52.560;13.374;2023-01-15T01:04:44;99150.53;;;9.11;94.06
67015;BME280;1033;52.560;13.374;2023-01-15T01:07:15;99146.91;;;9.17;93.26
67015;BME280;1033;52.560;13.374;2023-01-15T01:09:45;99134.81;;;9.20;93.08
67015;BME280;1033;52.560;13.374;2023-01-15T01:12:14;99145.38;;;9.21;93.26
67015;BME280;1033;52.560;13.374;2023-01-15T01:14:43;99148.41;;;9.25;93.04
67015;BME280;1033;52.560;13.374;2023-01-15T01:17:14;99158.41;;;9.24;93.46
67015;BME280;1033;52.560;13.374;2023-01-15T01:19:43;99150.41;;;9.29;93.03
67015;BME280;1033;52.560;13.374;2023-01-15T01:22:13;99132.81;;;9.27;93.34
67015;BME280;1033;52.560;13.374;2023-01-15T01:24:42;99131.88;;;9.33;93.05
67015;BME280;1033;52.560;13.374;2023-01-15T01:27:11;99133.16;;;9.42;92.54
67015;BME280;1033;52.560;13.374;2023-01-15T01:33:02;99153.69;;;9.43;91.93
67015;BME280;1033;52.560;13.374;2023-01-15T01:35:32;99150.41;;;9.41;92.44
67015;BME280;1033;52.560;13.374;2023-01-15T01:38:01;99141.47;;;9.40;92.39
67015;BME280;1033;52.560;13.374;2023-01-15T01:40:30;99145.47;;;9.38;92.60
67015;BME280;1033;52.560;13.374;2023-01-15T01:42:59;99129.63;;;9.41;92.65
67015;BME280;1033;52.560;13.374;2023-01-15T01:45:30;99119.16;;;9.45;92.65
67015;BME280;1033;52.560;13.374;2023-01-15T01:48:04;99122.56;;;9.52;92.64
67015;BME280;1033;52.560;13.374;2023-01-15T01:50:36;99125.25;;;9.52;92.29
67015;BME280;1033;52.560;13.374;2023-01-15T01:53:10;99125.72;;;9.49;92.76
67015;BME280;1033;52.560;13.374;2023-01-15T01:55:41;99131.03;;;9.44;93.67
67015;BME280;1033;52.560;13.374;2023-01-15T01:58:11;99137.59;;;9.48;93.82
67015;BME280;1033;52.560;13.374;2023-01-15T02:00:45;99136.31;;;9.39;94.47
67015;BME280;1033;52.560;13.374;2023-01-15T02:03:18;99137.94;;;9.40;95.25
67015;BME280;1033;52.560;13.374;2023-01-15T02:05:53;99128.78;;;9.41;95.40
67015;BME280;1033;52.560;13.374;2023-01-15T02:08:23;99128.22;;;9.39;95.58
67015;BME280;1033;52.560;13.374;2023-01-15T02:10:54;99126.00;;;9.36;96.39
67015;BME280;1033;52.560;13.374;2023-01-15T02:13:35;99128.56;;;9.31;96.96
67015;BME280;1033;52.560;13.374;2023-01-15T02:16:10;99131.28;;;9.31;97.98
67015;BME280;1033;52.560;13.374;2023-01-15T02:18:50;99125.31;;;9.29;98.41
67015;BME280;1033;52.560;13.374;2023-01-15T02:21:25;99119.19;;;9.22;99.17
67015;BME280;1033;52.560;13.374;2023-01-15T02:24:09;99118.72;;;9.25;100.00
67015;BME280;1033;52.560;13.374;2023-01-15T02:27:03;99133.28;;;9.24;100.00
67015;BME280;1033;52.560;13.374;2023-01-15T02:29:45;99137.53;;;9.20;100.00
67015;BME280;1033;52.560;13.374;2023-01-15T02:32:30;99129.31;;;9.14;100.00
67015;BME280;1033;52.560;13.374;2023-01-15T02:35:04;99127.78;;;9.19;100.00
67015;BME280;1033;52.560;13.374;2023-01-15T02:37:38;99121.34;;;9.20;100.00
67015;BME280;1033;52.560;13.374;2023-01-15T02:40:10;99124.97;;;9.02;100.00
67015;BME280;1033;52.560;13.374;2023-01-15T02:42:43;99124.50;;;9.05;100.00
67015;BME280;1033;52.560;13.374;2023-01-15T02:45:18;99118.97;;;9.11;100.00
67015;BME280;1033;52.560;13.374;2023-01-15T02:47:53;99104.91;;;9.09;100.00
67015;BME280;1033;52.560;13.374;2023-01-15T02:50:26;99106.53;;;9.10;100.00
67015;BME280;1033;52.560;13.374;2023-01-15T02:53:00;99112.53;;;9.12;100.00
67015;BME280;1033;52.560;13.374;2023-01-15T02:55:38;99111.81;;;9.17;100.00
67015;BME280;1033;52.560;13.374;2023-01-15T02:58:15;99107.50;;;9.04;100.00
67015;BME280;1033;52.560;13.374;2023-01-15T03:00:48;99104.09;;;9.09;100.00
67015;BME280;1033;52.560;13.374;2023-01-15T03:03:25;99110.41;;;9.03;100.00
67015;BME280;1033;52.560;13.374;2023-01-15T03:06:03;99116.03;;;9.13;100.00
67015;BME280;1033;52.560;13.374;2023-01-15T03:08:34;99117.69;;;9.14;100.00
67015;BME280;1033;52.560;13.374;2023-01-15T03:11:07;99113.13;;;9.14;100.00
67015;BME280;1033;52.560;13.374;2023-01-15T03:13:49;99106.75;;;9.21;100.00
67015;BME280;1033;52.560;13.374;2023-01-15T03:16:24;99105.59;;;9.16;100.00
67015;BME280;1033;52.560;13.374;2023-01-15T03:19:14;99107.59;;;9.09;100.00
67015;BME280;1033;52.560;13.374;2023-01-15T03:21:52;99107.72;;;9.14;100.00
67015;BME280;1033;52.560;13.374;2023-01-15T03:24:36;99097.03;;;9.08;100.00
67015;BME280;1033;52.560;13.374;2023-01-15T03:27:09;99101.63;;;9.07;100.00
67015;BME280;1033;52.560;13.374;2023-01-15T03:29:46;99099.81;;;9.25;100.00
67015;BME280;1033;52.560;13.374;2023-01-15T03:32:17;99109.22;;;9.22;100.00
67015;BME280;1033;52.560;13.374;2023-01-15T03:34:48;99101.84;;;9.18;100.00
67015;BME280;1033;52.560;13.374;2023-01-15T03:37:20;99109.59;;;9.14;100.00
67015;BME280;1033;52.560;13.374;2023-01-15T03:39:52;99110.88;;;9.23;100.00
67015;BME280;1033;52.560;13.374;2023-01-15T03:42:33;99103.34;;;9.25;100.00
67015;BME280;1033;52.560;13.374;2023-01-15T03:45:12;99105.00;;;9.26;100.00
67015;BME280;1033;52.560;13.374;2023-01-15T03:47:52;99117.22;;;9.29;100.00
67015;BME280;1033;52.560;13.374;2023-01-15T03:50:29;99127.53;;;9.32;100.00
67015;BME280;1033;52.560;13.374;2023-01-15T03:53:08;99117.31;;;9.34;100.00
67015;BME280;1033;52.560;13.374;2023-01-15T03:55:52;99112.53;;;9.24;100.00
67015;BME280;1033;52.560;13.374;2023-01-15T03:58:26;99117.78;;;9.31;100.00
67015;BME280;1033;52.560;13.374;2023-01-15T04:01:00;99146.19;;;9.33;100.00
67015;BME280;1033;52.560;13.374;2023-01-15T04:03:33;99170.69;;;9.20;100.00
67015;BME280;1033;52.560;13.374;2023-01-15T04:06:06;99179.03;;;8.95;100.00
67015;BME280;1033;52.560;13.374;2023-01-15T04:08:39;99184.25;;;8.55;100.00
67015;BME280;1033;52.560;13.374;2023-01-15T04:11:10;99187.69;;;8.33;100.00
67015;BME280;1033;52.560;13.374;2023-01-15T04:13:45;99201.63;;;8.11;100.00
67015;BME280;1033;52.560;13.374;2023-01-15T04:16:32;99211.94;;;7.96;100.00
67015;BME280;1033;52.560;13.374;2023-01-15T04:19:02;99226.16;;;7.85;100.00
67015;BME280;1033;52.560;13.374;2023-01-15T04:21:34;99232.59;;;7.48;98.97
67015;BME280;1033;52.560;13.374;2023-01-15T04:24:03;99255.34;;;7.27;100.00
67015;BME280;1033;52.560;13.374;2023-01-15T04:26:33;99262.97;;;7.05;99.34
67015;BME280;1033;52.560;13.374;2023-01-15T04:29:02;99269.56;;;6.78;98.37
67015;BME280;1033;52.560;13.374;2023-01-15T04:31:32;99271.78;;;6.56;96.61
67015;BME280;1033;52.560;13.374;2023-01-15T04:34:03;99265.66;;;6.42;96.72
67015;BME280;1033;52.560;13.374;2023-01-15T04:36:32;99267.59;;;6.29;94.57
67015;BME280;1033;52.560;13.374;2023-01-15T04:39:03;99269.69;;;6.20;95.62
67015;BME280;1033;52.560;13.374;2023-01-15T04:41:33;99267.44;;;6.10;95.41
67015;BME280;1033;52.560;13.374;2023-01-15T04:44:20;99289.19;;;6.02;96.10
67015;BME280;1033;52.560;13.374;2023-01-15T04:46:55;99285.47;;;5.97;95.49
67015;BME280;1033;52.560;13.374;2023-01-15T04:49:26;99281.53;;;5.86;93.67
67015;BME280;1033;52.560;13.374;2023-01-15T04:51:56;99288.59;;;5.81;94.98
67015;BME280;1033;52.560;13.374;2023-01-15T04:54:26;99297.69;;;5.80;94.44
67015;BME280;1033;52.560;13.374;2023-01-15T04:56:55;99295.41;;;5.77;92.72
67015;BME280;1033;52.560;13.374;2023-01-15T04:59:25;99287.16;;;5.78;93.96
67015;BME280;1033;52.560;13.374;2023-01-15T05:01:56;99281.53;;;5.86;95.24
67015;BME280;1033;52.560;13.374;2023-01-15T05:04:33;99288.41;;;5.89;94.21
67015;BME280;1033;52.560;13.374;2023-01-15T05:07:03;99292.50;;;5.85;94.62
67015;BME280;1033;52.560;13.374;2023-01-15T05:09:33;99299.50;;;5.86;95.15
67015;BME280;1033;52.560;13.374;2023-01-15T05:12:02;99292.50;;;5.91;96.37
67015;BME280;1033;52.560;13.374;2023-01-15T05:14:32;99282.41;;;5.87;95.61
67015;BME280;1033;52.560;13.374;2023-01-15T05:17:02;99283.41;;;5.99;95.99
67015;BME280;1033;52.560;13.374;2023-01-15T05:19:31;99294.16;;;5.92;94.50
67015;BME280;1033;52.560;13.374;2023-01-15T05:22:01;99282.97;;;6.02;95.39
67015;BME280;1033;52.560;13.374;2023-01-15T05:24:30;99270.59;;;6.01;96.03
67015;BME280;1033;52.560;13.374;2023-01-15T05:26:59;99271.03;;;5.98;95.96
67015;BME280;1033;52.560;13.374;2023-01-15T05:29:29;99274.97;;;5.95;95.66
67015;BME280;1033;52.560;13.374;2023-01-15T05:31:58;99277.66;;;5.95;97.53
67015;BME280;1033;52.560;13.374;2023-01-15T05:34:29;99277.81;;;6.00;95.82
67015;BME280;1033;52.560;13.374;2023-01-15T05:36:58;99277.59;;;6.02;95.63
67015;BME280;1033;52.560;13.374;2023-01-15T05:39:27;99281.75;;;5.98;95.93
67015;BME280;1033;52.560;13.374;2023-01-15T05:41:56;99281.75;;;6.04;96.93
67015;BME280;1033;52.560;13.374;2023-01-15T05:44:27;99277.38;;;6.10;96.75
67015;BME280;1033;52.560;13.374;2023-01-15T05:46:58;99279.25;;;6.09;96.45
67015;BME280;1033;52.560;13.374;2023-01-15T05:49:30;99286.66;;;6.14;96.27
67015;BME280;1033;52.560;13.374;2023-01-15T05:52:00;99287.06;;;6.11;96.53
67015;BME280;1033;52.560;13.374;2023-01-15T05:54:31;99285.19;;;6.18;97.01
67015;BME280;1033;52.560;13.374;2023-01-15T05:57:01;99286.22;;;6.17;94.91
67015;BME280;1033;52.560;13.374;2023-01-15T05:59:31;99267.63;;;6.22;96.03
67015;BME280;1033;52.560;13.374;2023-01-15T06:02:01;99267.88;;;6.14;96.03
67015;BME280;1033;52.560;13.374;2023-01-15T06:04:32;99267.00;;;6.20;96.46
67015;BME280;1033;52.560;13.374;2023-01-15T06:07:01;99270.75;;;6.19;95.71
67015;BME280;1033;52.560;13.374;2023-01-15T06:09:30;99259.38;;;6.17;95.45
67015;BME280;1033;52.560;13.374;2023-01-15T06:11:59;99269.69;;;6.20;95.12
67015;BME280;1033;52.560;13.374;2023-01-15T06:14:28;99259.16;;;6.19;94.63
67015;BME280;1033;52.560;13.374;2023-01-15T06:16:58;99257.25;;;6.32;94.79
67015;BME280;1033;52.560;13.374;2023-01-15T06:19:27;99255.16;;;6.34;92.61
67015;BME280;1033;52.560;13.374;2023-01-15T06:21:57;99260.78;;;6.26;92.98
67015;BME280;1033;52.560;13.374;2023-01-15T06:24:27;99254.00;;;6.24;93.88
67015;BME280;1033;52.560;13.374;2023-01-15T06:26:56;99251.94;;;6.19;93.88
67015;BME280;1033;52.560;13.374;2023-01-15T06:29:26;99262.03;;;6.24;93.39
67015;BME280;1033;52.560;13.374;2023-01-15T06:31:55;99260.53;;;6.34;92.96
67015;BME280;1033;52.560;13.374;2023-01-15T06:34:24;99270.81;;;6.44;91.83
67015;BME280;1033;52.560;13.374;2023-01-15T06:36:54;99267.31;;;6.43;91.17
67015;BME280;1033;52.560;13.374;2023-01-15T06:39:24;99278.91;;;6.37;91.35
67015;BME280;1033;52.560;13.374;2023-01-15T06:41:53;99284.16;;;6.19;91.72
67015;BME280;1033;52.560;13.374;2023-01-15T06:44:40;99279.66;;;6.13;90.87
67015;BME280;1033;52.560;13.374;2023-01-15T06:47:27;99276.31;;;6.18;90.68
67015;BME280;1033;52.560;13.374;2023-01-15T06:49:57;99275.06;;;6.20;91.02
67015;BME280;1033;52.560;13.374;2023-01-15T06:52:28;99282.53;;;6.18;91.32
67015;BME280;1033;52.560;13.374;2023-01-15T06:54:59;99278.38;;;6.16;91.63
67015;BME280;1033;52.560;13.374;2023-01-15T06:57:28;99285.59;;;6.15;92.29
67015;BME280;1033;52.560;13.374;2023-01-15T06:59:57;99297.63;;;6.13;93.55
67015;BME280;1033;52.560;13.374;2023-01-15T07:02:26;99289.72;;;6.24;93.49
67015;BME280;1033;52.560;13.374;2023-01-15T07:04:55;99291.16;;;6.20;92.22
67015;BME280;1033;52.560;13.374;2023-01-15T07:07:27;99303.75;;;6.33;92.96
67015;BME280;1033;52.560;13.374;2023-01-15T07:09:58;99302.28;;;6.37;92.95
67015;BME280;1033;52.560;13.374;2023-01-15T07:12:27;99299.59;;;6.37;92.27
67015;BME280;1033;52.560;13.374;2023-01-15T07:14:58;99310.53;;;6.35;93.29
67015;BME280;1033;52.560;13.374;2023-01-15T07:17:27;99296.91;;;6.37;92.49
67015;BME280;1033;52.560;13.374;2023-01-15T07:19:56;99302.06;;;6.38;91.24
67015;BME280;1033;52.560;13.374;2023-01-15T07:22:26;99289.53;;;6.19;91.36
67015;BME280;1033;52.560;13.374;2023-01-15T07:24:55;99295.75;;;6.13;91.49
67015;BME280;1033;52.560;13.374;2023-01-15T07:27:25;99296.34;;;6.15;91.16
67015;BME280;1033;52.560;13.374;2023-01-15T07:29:55;99301.19;;;6.00;91.72
67015;BME280;1033;52.560;13.374;2023-01-15T07:32:24;99299.91;;;6.02;91.13
67015;BME280;1033;52.560;13.374;2023-01-15T07:34:53;99310.59;;;6.16;91.15
67015;BME280;1033;52.560;13.374;2023-01-15T07:37:22;99305.84;;;6.24;92.64
67015;BME280;1033;52.560;13.374;2023-01-15T07:39:55;99299.47;;;6.19;91.76
67015;BME280;1033;52.560;13.374;2023-01-15T07:42:25;99314.75;;;6.18;91.61
67015;BME280;1033;52.560;13.374;2023-01-15T07:45:12;99310.22;;;6.12;92.22
67015;BME280;1033;52.560;13.374;2023-01-15T07:47:59;99316.03;;;6.02;93.16
67015;BME280;1033;52.560;13.374;2023-01-15T07:50:45;99318.06;;;6.14;92.94
67015;BME280;1033;52.560;13.374;2023-01-15T07:53:14;99320.31;;;6.10;91.79
67015;BME280;1033;52.560;13.374;2023-01-15T07:55:44;99330.66;;;6.13;91.87
67015;BME280;1033;52.560;13.374;2023-01-15T07:58:15;99325.53;;;6.05;92.05
67015;BME280;1033;52.560;13.374;2023-01-15T08:00:44;99332.75;;;6.04;92.59
67015;BME280;1033;52.560;13.374;2023-01-15T08:03:13;99335.41;;;6.18;92.77
67015;BME280;1033;52.560;13.374;2023-01-15T08:05:43;99335.00;;;6.14;92.54
67015;BME280;1033;52.560;13.374;2023-01-15T08:08:14;99347.38;;;6.15;93.31
67015;BME280;1033;52.560;13.374;2023-01-15T08:10:44;99351.13;;;6.07;93.05
67015;BME280;1033;52.560;13.374;2023-01-15T08:13:28;99326.75;;;6.02;92.88
67015;BME280;1033;52.560;13.374;2023-01-15T08:16:15;99317.25;;;6.06;92.44
67015;BME280;1033;52.560;13.374;2023-01-15T08:18:44;99310.59;;;6.16;92.15
67015;BME280;1033;52.560;13.374;2023-01-15T08:21:14;99301.50;;;6.23;91.75
67015;BME280;1033;52.560;13.374;2023-01-15T08:23:43;99305.22;;;6.22;90.99
67015;BME280;1033;52.560;13.374;2023-01-15T08:26:14;99301.91;;;6.20;90.72
67015;BME280;1033;52.560;13.374;2023-01-15T08:28:45;99307.28;;;6.20;90.78
67015;BME280;1033;52.560;13.374;2023-01-15T08:31:14;99315.53;;;6.25;90.16
67015;BME280;1033;52.560;13.374;2023-01-15T08:33:43;99320.91;;;6.25;90.28
67015;BME280;1033;52.560;13.374;2023-01-15T08:36:12;99329.59;;;6.27;90.41
67015;BME280;1033;52.560;13.374;2023-01-15T08:38:42;99326.28;;;6.25;90.46
67015;BME280;1033;52.560;13.374;2023-01-15T08:41:12;99326.06;;;6.27;90.80
67015;BME280;1033;52.560;13.374;2023-01-15T08:43:41;99332.25;;;6.34;89.78
67015;BME280;1033;52.560;13.374;2023-01-15T08:46:14;99331.25;;;6.28;90.68
67015;BME280;1033;52.560;13.374;2023-01-15T08:48:43;99334.91;;;6.40;89.52
67015;BME280;1033;52.560;13.374;2023-01-15T08:51:12;99333.50;;;6.31;89.69
67015;BME280;1033;52.560;13.374;2023-01-15T08:53:42;99330.38;;;6.34;89.63
67015;BME280;1033;52.560;13.374;2023-01-15T08:56:12;99327.66;;;6.47;88.45
67015;BME280;1033;52.560;13.374;2023-01-15T08:58:41;99326.97;;;6.59;87.57
67015;BME280;1033;52.560;13.374;2023-01-15T09:01:13;99325.34;;;6.51;87.96
67015;BME280;1033;52.560;13.374;2023-01-15T09:03:43;99334.63;;;6.55;86.56
67015;BME280;1033;52.560;13.374;2023-01-15T09:06:12;99349.69;;;6.63;86.95
67015;BME280;1033;52.560;13.374;2023-01-15T09:08:41;99341.22;;;6.59;87.51
67015;BME280;1033;52.560;13.374;2023-01-15T09:11:10;99355.50;;;6.60;87.51
67015;BME280;1033;52.560;13.374;2023-01-15T09:13:40;99361.22;;;6.70;87.19
67015;BME280;1033;52.560;13.374;2023-01-15T09:16:11;99351.50;;;6.69;85.93
67015;BME280;1033;52.560;13.374;2023-01-15T09:18:41;99348.41;;;6.72;85.31
67015;BME280;1033;52.560;13.374;2023-01-15T09:21:11;99353.53;;;6.80;86.65
67015;BME280;1033;52.560;13.374;2023-01-15T09:23:40;99359.53;;;6.82;85.33
67015;BME280;1033;52.560;13.374;2023-01-15T09:26:26;99350.81;;;6.86;85.32
67015;BME280;1033;52.560;13.374;2023-01-15T09:28:56;99353.31;;;6.81;84.53
67015;BME280;1033;52.560;13.374;2023-01-15T09:31:26;99367.13;;;6.91;84.14
67015;BME280;1033;52.560;13.374;2023-01-15T09:33:57;99357.69;;;7.07;84.12
67015;BME280;1033;52.560;13.374;2023-01-15T09:36:28;99356.84;;;7.13;83.93
67015;BME280;1033;52.560;13.374;2023-01-15T09:38:58;99367.66;;;7.07;83.00
67015;BME280;1033;52.560;13.374;2023-01-15T09:41:33;99364.31;;;7.11;82.59
67015;BME280;1033;52.560;13.374;2023-01-15T09:44:33;99364.44;;;6.91;82.66
67015;BME280;1033;52.560;13.374;2023-01-15T09:47:08;99376.78;;;6.99;82.95
67015;BME280;1033;52.560;13.374;2023-01-15T09:49:53;99375.22;;;6.85;82.69
67015;BME280;1033;52.560;13.374;2023-01-15T09:52:36;99381.03;;;6.82;82.62
67015;BME280;1033;52.560;13.374;2023-01-15T09:55:14;99366.00;;;7.06;82.16
67015;BME280;1033;52.560;13.374;2023-01-15T09:57:45;99370.91;;;7.15;80.83
67015;BME280;1033;52.560;13.374;2023-01-15T10:00:19;99367.50;;;7.26;80.02
67015;BME280;1033;52.560;13.374;2023-01-15T10:02:54;99372.38;;;7.42;79.92
67015;BME280;1033;52.560;13.374;2023-01-15T10:05:30;99372.81;;;7.39;79.18
67015;BME280;1033;52.560;13.374;2023-01-15T10:08:05;99369.56;;;7.31;78.96
67015;BME280;1033;52.560;13.374;2023-01-15T10:10:43;99362.72;;;7.35;79.30
67015;BME280;1033;52.560;13.374;2023-01-15T10:13:18;99357.41;;;7.22;78.96
67015;BME280;1033;52.560;13.374;2023-01-15T10:15:51;99351.81;;;7.23;79.75
67015;BME280;1033;52.560;13.374;2023-01-15T10:18:23;99360.06;;;7.28;77.57
67015;BME280;1033;52.560;13.374;2023-01-15T10:21:17;99362.38;;;7.50;77.74
67015;BME280;1033;52.560;13.374;2023-01-15T10:23:59;99361.59;;;7.67;77.07
67015;BME280;1033;52.560;13.374;2023-01-15T10:26:34;99367.66;;;7.63;76.44
67015;BME280;1033;52.560;13.374;2023-01-15T10:29:11;99355.69;;;7.59;76.04
67015;BME280;1033;52.560;13.374;2023-01-15T10:31:52;99346.31;;;7.61;75.44
67015;BME280;1033;52.560;13.374;2023-01-15T10:37:29;99351.53;;;7.81;73.89
67015;BME280;1033;52.560;13.374;2023-01-15T10:40:17;99349.84;;;8.05;73.97
67015;BME280;1033;52.560;13.374;2023-01-15T10:42:56;99355.84;;;7.89;72.69
67015;BME280;1033;52.560;13.374;2023-01-15T10:45:32;99353.59;;;8.04;73.12
67015;BME280;1033;52.560;13.374;2023-01-15T10:48:08;99358.28;;;7.90;72.26
67015;BME280;1033;52.560;13.374;2023-01-15T10:50:40;99362.69;;;7.84;73.02
67015;BME280;1033;52.560;13.374;2023-01-15T10:53:16;99364.56;;;7.84;72.55
67015;BME280;1033;52.560;13.374;2023-01-15T10:55:56;99353.72;;;7.91;72.70
67015;BME280;1033;52.560;13.374;2023-01-15T10:58:33;99354.25;;;7.99;72.13
67015;BME280;1033;52.560;13.374;2023-01-15T11:01:08;99356.06;;;8.05;71.95
67015;BME280;1033;52.560;13.374;2023-01-15T11:03:41;99366.00;;;8.05;71.41
67015;BME280;1033;52.560;13.374;2023-01-15T11:06:13;99373.59;;;8.14;71.30
67015;BME280;1033;52.560;13.374;2023-01-15T11:08:49;99371.69;;;7.97;70.64
67015;BME280;1033;52.560;13.374;2023-01-15T11:11:42;99375.41;;;7.77;70.75
67015;BME280;1033;52.560;13.374;2023-01-15T11:14:37;99379.09;;;8.01;71.59
67015;BME280;1033;52.560;13.374;2023-01-15T11:17:28;99383.50;;;7.96;71.25
67015;BME280;1033;52.560;13.374;2023-01-15T11:20:25;99378.50;;;7.99;70.69
67015;BME280;1033;52.560;13.374;2023-01-15T11:22:55;99370.09;;;7.89;70.45
67015;BME280;1033;52.560;13.374;2023-01-15T11:25:28;99368.06;;;7.84;70.85
67015;BME280;1033;52.560;13.374;2023-01-15T11:27:59;99362.94;;;7.83;71.31
67015;BME280;1033;52.560;13.374;2023-01-15T11:30:30;99364.72;;;7.89;69.85
67015;BME280;1033;52.560;13.374;2023-01-15T11:33:02;99365.47;;;7.78;69.73
67015;BME280;1033;52.560;13.374;2023-01-15T11:35:32;99374.44;;;7.90;69.92
67015;BME280;1033;52.560;13.374;2023-01-15T11:38:04;99364.19;;;7.80;69.75
67015;BME280;1033;52.560;13.374;2023-01-15T11:40:34;99368.06;;;7.84;69.98
67015;BME280;1033;52.560;13.374;2023-01-15T11:43:14;99366.66;;;7.82;70.55
67015;BME280;1033;52.560;13.374;2023-01-15T11:46:03;99359.72;;;7.93;69.77
67015;BME280;1033;52.560;13.374;2023-01-15T11:48:50;99359.94;;;7.91;70.02
67015;BME280;1033;52.560;13.374;2023-01-15T11:51:39;99360.41;;;8.06;69.68
67015;BME280;1033;52.560;13.374;2023-01-15T11:54:12;99372.50;;;7.79;69.53
67015;BME280;1033;52.560;13.374;2023-01-15T11:56:45;99359.47;;;7.94;69.75
67015;BME280;1033;52.560;13.374;2023-01-15T11:59:17;99359.19;;;7.84;69.01
67015;BME280;1033;52.560;13.374;2023-01-15T12:01:50;99367.03;;;7.85;69.68
67015;BME280;1033;52.560;13.374;2023-01-15T12:04:31;99358.88;;;7.74;70.39
67015;BME280;1033;52.560;13.374;2023-01-15T12:07:04;99353.34;;;7.87;69.66
67015;BME280;1033;52.560;13.374;2023-01-15T12:09:51;99352.91;;;7.90;69.65
67015;BME280;1033;52.560;13.374;2023-01-15T12:12:33;99354.88;;;8.01;69.30
67015;BME280;1033;52.560;13.374;2023-01-15T12:15:20;99352.16;;;7.83;69.23
67015;BME280;1033;52.560;13.374;2023-01-15T12:18:10;99346.00;;;7.94;69.30
67015;BME280;1033;52.560;13.374;2023-01-15T12:21:19;99352.91;;;7.90;68.54
67015;BME280;1033;52.560;13.374;2023-01-15T12:24:12;99357.84;;;7.93;68.91
67015;BME280;1033;52.560;13.374;2023-01-15T12:27:00;99367.41;;;7.89;68.11
67015;BME280;1033;52.560;13.374;2023-01-15T12:29:39;99362.00;;;7.89;68.38
67015;BME280;1033;52.560;13.374;2023-01-15T12:32:14;99356.63;;;7.89;69.04
67015;BME280;1033;52.560;13.374;2023-01-15T12:34:48;99355.09;;;8.00;68.52
67015;BME280;1033;52.560;13.374;2023-01-15T12:37:22;99344.56;;;7.98;68.33
67015;BME280;1033;52.560;13.374;2023-01-15T12:39:56;99340.22;;;8.15;68.47
67015;BME280;1033;52.560;13.374;2023-01-15T12:42:27;99337.81;;;8.07;67.69
67015;BME280;1033;52.560;13.374;2023-01-15T12:45:20;99335.78;;;8.03;66.96
67015;BME280;1033;52.560;13.374;2023-01-15T12:47:55;99335.41;;;7.99;67.40
67015;BME280;1033;52.560;13.374;2023-01-15T12:50:37;99338.69;;;8.01;67.36
67015;BME280;1033;52.560;13.374;2023-01-15T12:53:14;99334.16;;;8.02;67.38
67015;BME280;1033;52.560;13.374;2023-01-15T12:55:49;99336.31;;;7.93;67.23
67015;BME280;1033;52.560;13.374;2023-01-15T12:58:34;99343.78;;;7.91;67.93
67015;BME280;1033;52.560;13.374;2023-01-15T13:01:13;99330.41;;;7.60;68.00
67015;BME280;1033;52.560;13.374;2023-01-15T13:06:34;99343.09;;;7.77;68.55
67015;BME280;1033;52.560;13.374;2023-01-15T13:09:13;99338.16;;;7.74;68.30
67015;BME280;1033;52.560;13.374;2023-01-15T13:11:45;99343.03;;;7.84;68.05
67015;BME280;1033;52.560;13.374;2023-01-15T13:14:15;99341.19;;;8.03;67.84
67015;BME280;1033;52.560;13.374;2023-01-15T13:16:51;99352.69;;;8.10;67.62
67015;BME280;1033;52.560;13.374;2023-01-15T13:19:35;99341.19;;;8.03;67.11
67015;BME280;1033;52.560;13.374;2023-01-15T13:22:12;99348.84;;;7.81;67.55
67015;BME280;1033;52.560;13.374;2023-01-15T13:24:54;99334.34;;;7.82;66.83
67015;BME280;1033;52.560;13.374;2023-01-15T13:27:38;99346.00;;;7.76;67.73
67015;BME280;1033;52.560;13.374;2023-01-15T13:30:25;99340.56;;;7.58;67.49
67015;BME280;1033;52.560;13.374;2023-01-15T13:33:12;99336.19;;;7.63;67.74
67015;BME280;1033;52.560;13.374;2023-01-15T13:35:48;99337.88;;;7.58;67.74
67015;BME280;1033;52.560;13.374;2023-01-15T13:38:21;99337.34;;;7.49;67.15
67015;BME280;1033;52.560;13.374;2023-01-15T13:40:53;99341.09;;;7.41;67.92
67015;BME280;1033;52.560;13.374;2023-01-15T13:43:33;99336.28;;;7.25;67.85
67015;BME280;1033;52.560;13.374;2023-01-15T13:46:04;99349.78;;;7.19;67.93
67015;BME280;1033;52.560;13.374;2023-01-15T13:48:41;99331.91;;;6.99;68.33
67015;BME280;1033;52.560;13.374;2023-01-15T13:51:25;99335.03;;;6.96;68.71
67015;BME280;1033;52.560;13.374;2023-01-15T13:53:56;99334.63;;;6.93;69.33
67015;BME280;1033;52.560;13.374;2023-01-15T13:56:29;99363.72;;;7.03;69.42